createdAt,value
2023-04-28T00:00:22.454Z,64.98
2023-04-28T00:02:51.345Z,66.61
2023-04-28T00:05:18.401Z,68.51
2023-04-28T00:07:45.733Z,67.89
2023-04-28T00:10:12.383Z,67.14
2023-04-28T00:12:40.243Z,67.54
2023-04-28T00:15:07.819Z,68.29
2023-04-28T00:17:34.708Z,68.92
2023-04-28T00:20:01.378Z,69.68
2023-04-28T00:22:28.361Z,69.04
2023-04-28T00:24:55.170Z,69.20
2023-04-28T00:27:21.688Z,68.78
2023-04-28T00:29:50.527Z,69.48
2023-04-28T00:32:17.100Z,69.61
2023-04-28T00:34:43.930Z,69.79
2023-04-28T00:37:10.897Z,69.62
2023-04-28T00:39:37.497Z,69.34
2023-04-28T00:42:05.008Z,69.02
2023-04-28T00:44:31.731Z,68.52
2023-04-28T00:47:01.763Z,68.68
2023-04-28T00:49:29.220Z,70.22
2023-04-28T00:51:56.629Z,70.71
2023-04-28T00:54:23.408Z,70.02
2023-04-28T00:56:50.808Z,70.34
2023-04-28T00:59:18.624Z,69.03
2023-04-28T01:01:46.209Z,69.44
2023-04-28T01:04:13.050Z,69.24
2023-04-28T01:06:43.811Z,68.67
2023-04-28T01:09:10.500Z,69.16
2023-04-28T01:11:38.323Z,69.95
2023-04-28T01:14:11.464Z,70.06
2023-04-28T01:16:41.377Z,70.80
2023-04-28T01:19:08.471Z,71.36
2023-04-28T01:21:38.052Z,71.39
2023-04-28T01:24:23.314Z,70.71
2023-04-28T01:26:52.245Z,71.50
2023-04-28T01:29:18.768Z,73.77
2023-04-28T01:31:46.006Z,75.79
2023-04-28T01:34:14.672Z,76.72
2023-04-28T01:36:42.022Z,77.83
2023-04-28T01:39:10.578Z,77.18
2023-04-28T01:41:37.248Z,75.05
2023-04-28T01:44:05.215Z,74.19
2023-04-28T01:46:31.966Z,74.20
2023-04-28T01:48:58.637Z,75.58
2023-04-28T01:51:25.381Z,75.18
2023-04-28T01:53:53.116Z,76.39
2023-04-28T01:56:19.894Z,76.54
2023-04-28T01:58:46.766Z,77.68
2023-04-28T02:01:14.432Z,78.12
2023-04-28T02:03:42.693Z,78.31
2023-04-28T02:06:09.629Z,77.97
2023-04-28T02:08:38.378Z,78.46
2023-04-28T02:11:05.842Z,78.34
2023-04-28T02:13:33.746Z,77.72
2023-04-28T02:16:02.620Z,78.48
2023-04-28T02:18:32.650Z,77.68
2023-04-28T02:21:12.176Z,78.19
2023-04-28T02:23:39.938Z,78.58
2023-04-28T02:26:07.735Z,79.10
2023-04-28T02:28:34.364Z,79.33
2023-04-28T02:31:08.793Z,79.48
2023-04-28T02:33:36.721Z,79.12
2023-04-28T02:36:05.569Z,79.14
2023-04-28T02:38:33.192Z,79.59
2023-04-28T02:41:05.036Z,79.96
2023-04-28T02:43:33.209Z,80.39
2023-04-28T02:46:00.170Z,81.03
2023-04-28T02:48:27.233Z,80.81
2023-04-28T02:50:54.487Z,81.19
2023-04-28T02:53:21.772Z,80.88
2023-04-28T02:55:50.466Z,80.85
2023-04-28T02:58:18.215Z,80.67
2023-04-28T03:00:46.538Z,81.51
2023-04-28T03:03:15.815Z,81.61
2023-04-28T03:05:42.574Z,81.34
2023-04-28T03:08:09.141Z,81.44
2023-04-28T03:10:35.827Z,81.72
2023-04-28T03:13:04.443Z,81.24
2023-04-28T03:15:31.405Z,81.09
2023-04-28T03:17:58.249Z,81.53
2023-04-28T03:20:24.925Z,82.29
2023-04-28T03:22:51.743Z,83.05
2023-04-28T03:25:18.718Z,82.66
2023-04-28T03:27:50.990Z,82.31
2023-04-28T03:30:17.580Z,82.41
2023-04-28T03:32:44.275Z,82.65
2023-04-28T03:35:12.070Z,82.49
2023-04-28T03:37:40.244Z,82.91
2023-04-28T03:40:09.394Z,83.25
2023-04-28T03:42:55.719Z,83.36
2023-04-28T03:45:27.302Z,83.80
2023-04-28T03:47:54.157Z,84.16
2023-04-28T03:50:25.326Z,84.61
2023-04-28T03:52:53.066Z,85.21
2023-04-28T03:55:19.908Z,85.15
2023-04-28T03:57:46.811Z,85.18
2023-04-28T04:00:13.875Z,85.22
2023-04-28T04:02:46.488Z,85.29
2023-04-28T04:05:19.407Z,85.60
2023-04-28T04:07:46.284Z,85.82
2023-04-28T04:10:12.870Z,85.35
2023-04-28T04:12:44.996Z,85.99
2023-04-28T04:15:12.247Z,85.23
2023-04-28T04:17:39.618Z,85.82
2023-04-28T04:20:09.412Z,85.95
2023-04-28T04:22:37.007Z,86.34
2023-04-28T04:25:04.251Z,86.44
2023-04-28T04:27:31.157Z,86.89
2023-04-28T04:29:58.571Z,86.60
2023-04-28T04:32:26.565Z,85.66
2023-04-28T04:34:53.754Z,85.40
2023-04-28T04:37:20.388Z,85.37
2023-04-28T04:40:00.175Z,85.43
2023-04-28T04:42:30.701Z,85.19
2023-04-28T04:45:06.135Z,84.96
2023-04-28T04:47:33.058Z,84.44
2023-04-28T04:50:00.214Z,84.84
2023-04-28T04:52:27.112Z,84.59
2023-04-28T04:54:56.706Z,84.82
2023-04-28T04:57:28.229Z,85.75
2023-04-28T05:00:06.781Z,85.41
2023-04-28T05:02:37.054Z,84.99
2023-04-28T05:05:19.835Z,84.92
2023-04-28T05:08:02.559Z,85.09
2023-04-28T05:10:30.834Z,85.10
2023-04-28T05:12:58.332Z,85.07
2023-04-28T05:15:25.106Z,85.89
2023-04-28T05:18:21.988Z,86.32
2023-04-28T05:20:49.424Z,86.61
2023-04-28T05:23:18.267Z,86.86
2023-04-28T05:25:45.364Z,87.39
2023-04-28T05:28:13.172Z,87.81
2023-04-28T05:30:41.320Z,87.55
2023-04-28T05:33:07.931Z,87.56
2023-04-28T05:35:34.787Z,87.33
2023-04-28T05:38:03.436Z,87.53
2023-04-28T05:40:30.364Z,87.63
2023-04-28T05:42:57.187Z,87.79
2023-04-28T05:45:24.341Z,88.32
2023-04-28T05:47:51.435Z,89.07
2023-04-28T05:50:18.949Z,89.75
2023-04-28T05:52:46.045Z,89.98
2023-04-28T05:55:13.355Z,89.58
2023-04-28T05:57:51.818Z,91.20
2023-04-28T06:00:21.137Z,91.50
2023-04-28T06:02:49.495Z,91.83
2023-04-28T06:05:17.875Z,92.12
2023-04-28T06:07:48.272Z,93.32
2023-04-28T06:10:17.144Z,93.03
2023-04-28T06:12:44.871Z,93.85
2023-04-28T06:15:11.697Z,93.29
2023-04-28T06:17:39.775Z,93.23
2023-04-28T06:20:10.921Z,93.41
2023-04-28T06:22:38.183Z,93.29
2023-04-28T06:25:06.548Z,92.34
2023-04-28T06:27:38.991Z,91.89
2023-04-28T06:30:09.435Z,92.92
2023-04-28T06:32:36.600Z,93.54
2023-04-28T06:35:03.276Z,93.81
2023-04-28T06:37:30.151Z,93.16
2023-04-28T06:39:58.510Z,93.33
2023-04-28T06:42:28.186Z,92.96
2023-04-28T06:45:07.357Z,92.54
2023-04-28T06:47:37.764Z,92.67
2023-04-28T06:50:10.049Z,92.46
2023-04-28T06:52:39.857Z,92.17
2023-04-28T06:55:10.303Z,92.12
2023-04-28T06:57:38.108Z,91.88
2023-04-28T07:00:06.038Z,91.89
2023-04-28T07:02:32.822Z,90.76
2023-04-28T07:04:59.793Z,91.50
2023-04-28T07:07:27.279Z,91.35
2023-04-28T07:09:54.209Z,91.20
2023-04-28T07:12:22.491Z,91.72
2023-04-28T07:14:50.634Z,91.63
2023-04-28T07:17:17.334Z,91.25
2023-04-28T07:19:43.812Z,90.83
2023-04-28T07:22:10.615Z,91.05
2023-04-28T07:24:37.504Z,91.35
2023-04-28T07:27:03.993Z,91.41
2023-04-28T07:29:36.366Z,91.22
2023-04-28T07:32:06.824Z,91.55
2023-04-28T07:34:36.491Z,91.83
2023-04-28T07:37:04.242Z,91.61
2023-04-28T07:39:33.990Z,91.51
2023-04-28T07:42:03.960Z,91.52
2023-04-28T07:44:31.617Z,91.53
2023-04-28T07:46:59.805Z,91.09
2023-04-28T07:49:29.931Z,91.68
2023-04-28T07:51:58.478Z,91.75
2023-04-28T07:54:25.778Z,92.03
2023-04-28T07:56:52.444Z,92.24
2023-04-28T07:59:19.620Z,92.29
2023-04-28T08:01:46.699Z,92.90
2023-04-28T08:04:13.524Z,93.17
2023-04-28T08:06:42.107Z,93.03
2023-04-28T08:09:09.161Z,94.17
2023-04-28T08:11:40.505Z,94.54
2023-04-28T08:14:09.294Z,94.94
2023-04-28T08:16:39.473Z,94.85
2023-04-28T08:19:06.459Z,94.06
2023-04-28T08:21:34.116Z,93.93
2023-04-28T08:24:03.255Z,94.06
2023-04-28T08:26:30.096Z,94.20
2023-04-28T08:28:57.250Z,93.32
2023-04-28T08:31:26.245Z,93.16
2023-04-28T08:33:54.335Z,91.79
2023-04-28T08:36:31.830Z,89.73
2023-04-28T08:38:59.568Z,88.17
2023-04-28T08:41:30.018Z,89.66
2023-04-28T08:43:56.841Z,89.97
2023-04-28T08:46:24.931Z,91.36
2023-04-28T08:48:53.636Z,92.01
2023-04-28T08:51:33.955Z,92.10
2023-04-28T08:54:29.019Z,92.41
2023-04-28T08:56:53.223Z,92.43
2023-04-28T08:59:20.834Z,92.48
2023-04-28T09:01:49.835Z,92.91
2023-04-28T09:04:19.121Z,92.66
2023-04-28T09:06:47.781Z,93.43
2023-04-28T09:09:34.218Z,93.48
2023-04-28T09:12:05.356Z,93.96
2023-04-28T09:14:35.670Z,95.02
2023-04-28T09:17:09.611Z,95.37
2023-04-28T09:19:38.219Z,95.49
2023-04-28T09:22:21.823Z,95.91
2023-04-28T09:24:56.418Z,95.88
2023-04-28T09:27:30.361Z,95.94
2023-04-28T09:29:58.028Z,95.37
2023-04-28T09:32:27.979Z,95.21
2023-04-28T09:34:57.184Z,95.41
2023-04-28T09:37:27.163Z,95.39
2023-04-28T09:39:55.572Z,94.92
2023-04-28T09:42:42.244Z,95.15
2023-04-28T09:45:12.545Z,95.80
2023-04-28T09:47:41.960Z,96.06
2023-04-28T09:50:12.803Z,96.62
2023-04-28T09:52:48.778Z,96.80
2023-04-28T09:55:18.660Z,96.40
2023-04-28T09:57:49.418Z,96.00
2023-04-28T10:00:20.126Z,96.54
2023-04-28T10:02:51.750Z,96.10
2023-04-28T10:05:22.137Z,96.45
2023-04-28T10:07:49.800Z,96.00
2023-04-28T10:10:21.551Z,96.31
2023-04-28T10:12:49.020Z,96.17
2023-04-28T10:15:16.743Z,96.38
2023-04-28T10:17:43.803Z,96.01
2023-04-28T10:20:11.462Z,96.46
2023-04-28T10:22:47.239Z,97.17
2023-04-28T10:25:35.697Z,97.06
2023-04-28T10:28:11.505Z,97.10
2023-04-28T10:30:38.195Z,96.05
2023-04-28T10:33:15.137Z,95.30
2023-04-28T10:35:47.538Z,95.22
2023-04-28T10:38:19.281Z,94.66
2023-04-28T10:40:52.864Z,94.71
2023-04-28T10:43:26.381Z,94.44
2023-04-28T10:45:56.495Z,94.42
2023-04-28T10:48:46.478Z,94.06
2023-04-28T10:51:24.727Z,94.10
2023-04-28T10:53:52.386Z,94.28
2023-04-28T10:56:28.700Z,93.97
2023-04-28T10:58:58.576Z,93.41
2023-04-28T11:01:35.303Z,93.08
2023-04-28T11:04:17.274Z,93.61
2023-04-28T11:07:06.050Z,93.80
2023-04-28T11:09:32.744Z,94.31
2023-04-28T11:12:07.266Z,94.38
2023-04-28T11:14:42.195Z,94.41
2023-04-28T11:17:13.453Z,94.62
2023-04-28T11:19:43.791Z,95.48
2023-04-28T11:22:22.105Z,95.64
2023-04-28T11:25:00.419Z,95.55
2023-04-28T11:27:28.591Z,94.63
2023-04-28T11:29:55.718Z,93.93
2023-04-28T11:32:33.917Z,93.21
2023-04-28T11:35:01.383Z,91.98
2023-04-28T11:37:28.315Z,91.67
2023-04-28T11:39:56.210Z,91.44
2023-04-28T11:42:22.850Z,91.41
2023-04-28T11:44:52.822Z,91.80
2023-04-28T11:47:33.861Z,91.61
2023-04-28T11:50:02.236Z,92.68
2023-04-28T11:52:30.137Z,93.24
2023-04-28T11:55:00.493Z,92.43
2023-04-28T11:57:27.946Z,92.81
2023-04-28T12:00:22.330Z,92.95
2023-04-28T12:02:50.811Z,92.63
2023-04-28T12:05:22.703Z,91.75
2023-04-28T12:07:51.889Z,90.61
2023-04-28T12:10:19.884Z,90.40
2023-04-28T12:12:52.802Z,89.60
2023-04-28T12:15:22.857Z,89.66
2023-04-28T12:17:51.560Z,90.61
2023-04-28T12:20:39.801Z,91.48
2023-04-28T12:23:08.812Z,91.62
2023-04-28T12:25:45.059Z,90.04
2023-04-28T12:28:12.401Z,89.61
2023-04-28T12:30:42.798Z,90.71
2023-04-28T12:33:26.496Z,93.59
2023-04-28T12:35:57.381Z,91.00
2023-04-28T12:38:28.031Z,88.04
2023-04-28T12:40:58.639Z,84.91
2023-04-28T12:43:29.377Z,84.54
2023-04-28T12:45:57.316Z,85.18
2023-04-28T12:48:25.724Z,84.38
2023-04-28T12:51:01.452Z,83.36
2023-04-28T12:53:29.757Z,83.90
2023-04-28T12:55:57.767Z,82.21
2023-04-28T12:58:24.544Z,80.42
2023-04-28T13:00:51.399Z,80.34
2023-04-28T13:03:20.367Z,79.19
2023-04-28T13:05:48.530Z,79.88
2023-04-28T13:08:19.330Z,79.59
2023-04-28T13:10:47.252Z,78.72
2023-04-28T13:13:16.948Z,79.40
2023-04-28T13:15:49.862Z,78.38
2023-04-28T13:18:16.916Z,78.49
2023-04-28T13:20:46.757Z,77.23
2023-04-28T13:23:14.404Z,77.16
2023-04-28T13:25:41.443Z,74.94
2023-04-28T13:28:08.192Z,73.05
2023-04-28T13:30:34.993Z,72.63
2023-04-28T13:33:03.693Z,72.68
2023-04-28T13:35:30.552Z,72.69
2023-04-28T13:38:02.021Z,70.23
2023-04-28T13:40:28.940Z,70.69
2023-04-28T13:42:55.872Z,70.52
2023-04-28T13:45:22.958Z,70.21
2023-04-28T13:47:51.311Z,71.42
2023-04-28T13:50:18.358Z,71.49
2023-04-28T13:52:46.319Z,72.56
2023-04-28T13:55:13.620Z,72.31
2023-04-28T13:57:40.672Z,72.96
2023-04-28T14:00:08.278Z,75.80
2023-04-28T14:02:36.563Z,77.71
2023-04-28T14:05:03.577Z,79.84
2023-04-28T14:07:30.142Z,80.28
2023-04-28T14:09:57.160Z,80.88
2023-04-28T14:12:24.203Z,80.90
2023-04-28T14:14:50.695Z,81.72
2023-04-28T14:17:17.925Z,82.81
2023-04-28T14:19:45.612Z,83.07
2023-04-28T14:22:13.840Z,83.16
2023-04-28T14:24:42.885Z,83.00
2023-04-28T14:27:09.821Z,83.32
2023-04-28T14:29:36.575Z,83.50
2023-04-28T14:32:04.037Z,84.30
2023-04-28T14:34:32.127Z,84.62
2023-04-28T14:36:58.794Z,84.78
2023-04-28T14:39:26.204Z,85.33
2023-04-28T14:41:54.292Z,86.94
2023-04-28T14:44:21.031Z,86.43
2023-04-28T14:46:48.642Z,89.23
2023-04-28T14:49:15.346Z,90.07
2023-04-28T14:51:41.875Z,89.32
2023-04-28T14:54:09.671Z,88.20
2023-04-28T14:56:36.457Z,87.76
2023-04-28T14:59:03.951Z,88.18
2023-04-28T15:01:31.566Z,87.55
2023-04-28T15:03:58.705Z,87.81
2023-04-28T15:06:25.535Z,88.80
2023-04-28T15:08:52.747Z,87.38
2023-04-28T15:11:19.487Z,87.03
2023-04-28T15:13:46.160Z,86.46
2023-04-28T15:16:12.974Z,86.82
2023-04-28T15:18:39.807Z,86.70
2023-04-28T15:21:07.194Z,86.30
2023-04-28T15:23:33.759Z,83.64
2023-04-28T15:26:00.537Z,82.65
2023-04-28T15:28:28.129Z,82.11
2023-04-28T15:30:54.988Z,81.13
2023-04-28T15:33:21.845Z,81.60
2023-04-28T15:35:48.753Z,81.45
2023-04-28T15:38:15.319Z,81.18
2023-04-28T15:40:42.646Z,83.00
2023-04-28T15:43:09.834Z,81.40
2023-04-28T15:45:37.726Z,80.69
2023-04-28T15:48:06.788Z,80.56
2023-04-28T15:50:33.943Z,81.21
2023-04-28T15:53:00.518Z,80.24
2023-04-28T15:55:28.619Z,79.08
2023-04-28T15:57:56.138Z,78.85
2023-04-28T16:00:23.610Z,79.21
2023-04-28T16:02:53.879Z,79.00
2023-04-28T16:05:20.968Z,79.07
2023-04-28T16:07:47.509Z,78.15
2023-04-28T16:10:16.659Z,77.25
2023-04-28T16:12:43.340Z,77.36
2023-04-28T16:15:12.458Z,76.18
2023-04-28T16:17:40.004Z,76.67
2023-04-28T16:20:09.999Z,75.96
2023-04-28T16:22:38.403Z,76.14
2023-04-28T16:25:06.739Z,76.37
2023-04-28T16:27:33.914Z,76.31
2023-04-28T16:30:02.685Z,75.20
2023-04-28T16:32:29.556Z,75.19
2023-04-28T16:35:00.151Z,74.99
2023-04-28T16:37:27.720Z,75.00
2023-04-28T16:39:56.647Z,75.11
2023-04-28T16:42:23.448Z,74.83
2023-04-28T16:44:52.703Z,75.17
2023-04-28T16:47:27.662Z,75.24
2023-04-28T16:49:54.572Z,75.39
2023-04-28T16:52:21.336Z,74.74
2023-04-28T16:54:48.221Z,74.68
2023-04-28T16:57:15.934Z,74.37
2023-04-28T16:59:43.015Z,74.38
2023-04-28T17:02:10.649Z,73.68
2023-04-28T17:04:37.847Z,73.43
2023-04-28T17:07:05.588Z,73.78
2023-04-28T17:09:33.270Z,74.19
2023-04-28T17:12:00.869Z,74.41
2023-04-28T17:14:27.690Z,73.70
2023-04-28T17:16:56.588Z,73.73
2023-04-28T17:19:23.397Z,73.57
2023-04-28T17:21:52.346Z,73.52
2023-04-28T17:24:23.739Z,73.33
2023-04-28T17:26:55.384Z,74.15
2023-04-28T17:29:23.908Z,72.26
2023-04-28T17:31:53.048Z,72.22
2023-04-28T17:34:20.077Z,72.98
2023-04-28T17:36:47.009Z,72.10
2023-04-28T17:39:15.553Z,71.90
2023-04-28T17:41:43.662Z,72.71
2023-04-28T17:44:13.383Z,72.30
2023-04-28T17:46:41.289Z,72.10
2023-04-28T17:49:08.114Z,72.40
2023-04-28T17:51:34.727Z,72.16
2023-04-28T17:54:01.298Z,72.23
2023-04-28T17:56:28.649Z,72.17
2023-04-28T17:58:56.955Z,72.29
2023-04-28T18:01:23.924Z,72.57
2023-04-28T18:03:52.106Z,72.86
2023-04-28T18:06:22.270Z,73.06
2023-04-28T18:08:49.558Z,73.17
2023-04-28T18:11:19.443Z,73.57
2023-04-28T18:13:46.198Z,73.73
2023-04-28T18:16:15.640Z,74.04
2023-04-28T18:18:42.275Z,74.09
2023-04-28T18:21:10.305Z,74.09
2023-04-28T18:23:39.633Z,74.37
2023-04-28T18:26:06.182Z,74.43
2023-04-28T18:28:33.898Z,74.78
2023-04-28T18:34:52.433Z,74.74
2023-04-28T18:37:19.343Z,74.87
2023-04-28T18:39:57.813Z,75.27
2023-04-28T18:42:27.538Z,74.93
2023-04-28T18:45:02.414Z,75.31
2023-04-28T18:47:29.827Z,75.32
2023-04-28T18:49:58.342Z,75.45
2023-04-28T18:52:25.148Z,75.51
2023-04-28T18:54:57.028Z,75.51
2023-04-28T18:57:24.326Z,75.13
2023-04-28T18:59:51.105Z,75.34
2023-04-28T19:02:19.617Z,75.16
2023-04-28T19:04:52.120Z,74.97
2023-04-28T19:07:18.977Z,75.18
2023-04-28T19:09:45.983Z,74.68
2023-04-28T19:12:15.656Z,74.43
2023-04-28T19:14:46.205Z,74.98
2023-04-28T19:17:14.900Z,74.64
2023-04-28T19:19:43.889Z,74.37
2023-04-28T19:22:30.203Z,74.37
2023-04-28T19:25:06.660Z,74.48
2023-04-28T19:27:37.011Z,74.59
2023-04-28T19:30:08.088Z,74.76
2023-04-28T19:32:36.995Z,75.57
2023-04-28T19:35:07.292Z,75.69
2023-04-28T19:37:36.573Z,76.52
2023-04-28T19:40:07.407Z,76.52
2023-04-28T19:42:35.321Z,76.15
2023-04-28T19:45:02.109Z,75.92
2023-04-28T19:47:34.092Z,75.57
2023-04-28T19:50:01.511Z,75.74
2023-04-28T19:52:30.292Z,75.79
2023-04-28T19:54:57.592Z,75.95
2023-04-28T19:57:24.249Z,75.49
2023-04-28T19:59:51.817Z,75.72
2023-04-28T20:02:19.292Z,76.63
2023-04-28T20:04:46.488Z,76.66
2023-04-28T20:07:16.855Z,76.95
2023-04-28T20:09:44.453Z,76.92
2023-04-28T20:12:11.730Z,76.79
2023-04-28T20:14:38.325Z,76.73
2023-04-28T20:17:07.598Z,77.00
2023-04-28T20:19:37.165Z,77.09
2023-04-28T20:22:08.226Z,77.42
2023-04-28T20:24:35.424Z,78.12
2023-04-28T20:27:03.259Z,78.42
2023-04-28T20:29:31.714Z,79.04
2023-04-28T20:31:59.422Z,79.74
2023-04-28T20:34:28.886Z,80.53
2023-04-28T20:37:03.138Z,80.89
2023-04-28T20:39:31.370Z,81.13
2023-04-28T20:41:59.434Z,81.38
2023-04-28T20:44:26.432Z,81.27
2023-04-28T20:46:58.578Z,81.26
2023-04-28T20:49:28.688Z,80.64
2023-04-28T20:52:02.691Z,80.31
2023-04-28T20:54:32.958Z,80.15
2023-04-28T20:57:00.802Z,80.09
2023-04-28T20:59:33.551Z,80.83
2023-04-28T21:02:01.690Z,81.34
2023-04-28T21:04:28.672Z,81.14
2023-04-28T21:06:55.813Z,82.57
2023-04-28T21:09:25.575Z,82.69
2023-04-28T21:11:52.478Z,83.67
2023-04-28T21:14:19.101Z,83.77
2023-04-28T21:16:45.742Z,83.98
2023-04-28T21:19:12.439Z,83.40
2023-04-28T21:21:42.550Z,83.98
2023-04-28T21:24:12.520Z,83.47
2023-04-28T21:26:42.285Z,84.36
2023-04-28T21:29:10.940Z,84.14
2023-04-28T21:31:38.095Z,83.72
2023-04-28T21:34:04.817Z,83.39
2023-04-28T21:36:32.828Z,82.72
2023-04-28T21:39:03.139Z,83.03
2023-04-28T21:41:30.064Z,83.69
2023-04-28T21:43:57.141Z,84.16
2023-04-28T21:46:24.271Z,84.87
2023-04-28T21:48:51.159Z,85.03
2023-04-28T21:51:19.198Z,85.79
2023-04-28T21:53:45.786Z,85.14
2023-04-28T21:56:12.239Z,85.70
2023-04-28T21:58:41.751Z,86.17
2023-04-28T22:01:09.648Z,85.79
2023-04-28T22:03:37.952Z,86.06
2023-04-28T22:06:04.851Z,85.96
2023-04-28T22:08:31.938Z,86.46
2023-04-28T22:10:59.021Z,86.11
2023-04-28T22:13:26.825Z,86.14
2023-04-28T22:15:53.652Z,86.11
2023-04-28T22:18:22.417Z,86.05
2023-04-28T22:20:50.472Z,86.26
2023-04-28T22:23:18.007Z,84.50
2023-04-28T22:25:45.105Z,87.24
2023-04-28T22:28:11.691Z,90.22
2023-04-28T22:30:38.206Z,93.54
2023-04-28T22:33:05.196Z,94.03
2023-04-28T22:35:32.880Z,92.79
2023-04-28T22:37:59.773Z,88.53
2023-04-28T22:40:26.523Z,87.02
2023-04-28T22:42:54.739Z,87.09
2023-04-28T22:45:21.204Z,87.05
2023-04-28T22:47:47.706Z,87.05
2023-04-28T22:50:14.253Z,87.14
2023-04-28T22:52:41.043Z,87.29
2023-04-28T22:55:08.594Z,87.44
2023-04-28T22:57:35.201Z,87.62
2023-04-28T23:00:02.400Z,87.98
2023-04-28T23:02:29.282Z,87.51
2023-04-28T23:04:57.406Z,86.88
2023-04-28T23:07:25.701Z,86.71
2023-04-28T23:09:52.776Z,86.10
2023-04-28T23:12:19.773Z,85.73
2023-04-28T23:14:46.369Z,85.15
2023-04-28T23:17:13.161Z,84.67
2023-04-28T23:19:39.860Z,85.55
2023-04-28T23:22:10.943Z,86.05
2023-04-28T23:24:40.248Z,87.31
2023-04-28T23:27:06.970Z,85.93
2023-04-28T23:29:35.988Z,86.00
2023-04-28T23:32:03.245Z,86.44
2023-04-28T23:34:31.749Z,85.67
2023-04-28T23:36:59.952Z,84.64
2023-04-28T23:39:29.774Z,84.93
2023-04-28T23:41:59.047Z,84.76
2023-04-28T23:44:25.952Z,85.37
2023-04-28T23:46:54.241Z,84.79
2023-04-28T23:49:23.770Z,85.63
2023-04-28T23:51:50.794Z,85.28
2023-04-28T23:54:17.299Z,86.51
2023-04-28T23:56:44.277Z,87.10
2023-04-28T23:59:11.028Z,86.76
